sensor_id;sensor_type;location;lat;lon;timestamp;P1;durP1;ratioP1;P2;durP2;ratioP2
23754;SDS011;12057;52.042;6.830;2023-04-24T00:03:28;8.25;;;4.30;;
23754;SDS011;12057;52.042;6.830;2023-04-24T00:08:29;7.13;;;4.63;;
23754;SDS011;12057;52.042;6.830;2023-04-24T00:13:30;7.33;;;4.80;;
23754;SDS011;12057;52.042;6.830;2023-04-24T00:18:30;7.40;;;5.40;;
23754;SDS011;12057;52.042;6.830;2023-04-24T00:23:34;8.90;;;5.73;;
23754;SDS011;12057;52.042;6.830;2023-04-24T00:28:35;10.65;;;6.30;;
23754;SDS011;12057;52.042;6.830;2023-04-24T00:33:36;11.90;;;6.47;;
23754;SDS011;12057;52.042;6.830;2023-04-24T00:38:37;11.17;;;6.80;;
23754;SDS011;12057;52.042;6.830;2023-04-24T00:43:37;12.80;;;6.50;;
23754;SDS011;12057;52.042;6.830;2023-04-24T00:48:39;10.32;;;6.43;;
23754;SDS011;12057;52.042;6.830;2023-04-24T00:53:40;7.90;;;5.45;;
23754;SDS011;12057;52.042;6.830;2023-04-24T00:58:44;7.37;;;4.33;;
23754;SDS011;12057;52.042;6.830;2023-04-24T01:03:45;6.03;;;3.75;;
23754;SDS011;12057;52.042;6.830;2023-04-24T01:08:45;7.17;;;4.00;;
23754;SDS011;12057;52.042;6.830;2023-04-24T01:18:48;7.28;;;2.75;;
23754;SDS011;12057;52.042;6.830;2023-04-24T01:23:49;5.03;;;3.77;;
23754;SDS011;12057;52.042;6.830;2023-04-24T01:28:50;10.13;;;2.88;;
23754;SDS011;12057;52.042;6.830;2023-04-24T01:33:51;9.97;;;4.50;;
23754;SDS011;12057;52.042;6.830;2023-04-24T01:38:53;16.05;;;5.93;;
23754;SDS011;12057;52.042;6.830;2023-04-24T01:43:55;12.60;;;6.32;;
23754;SDS011;12057;52.042;6.830;2023-04-24T01:48:57;12.85;;;7.50;;
23754;SDS011;12057;52.042;6.830;2023-04-24T01:54:00;14.35;;;7.57;;
23754;SDS011;12057;52.042;6.830;2023-04-24T01:59:00;17.00;;;9.17;;
23754;SDS011;12057;52.042;6.830;2023-04-24T02:04:04;22.40;;;8.32;;
23754;SDS011;12057;52.042;6.830;2023-04-24T02:09:05;17.73;;;9.05;;
23754;SDS011;12057;52.042;6.830;2023-04-24T02:14:06;15.00;;;8.33;;
23754;SDS011;12057;52.042;6.830;2023-04-24T02:19:07;19.07;;;8.60;;
23754;SDS011;12057;52.042;6.830;2023-04-24T02:24:07;22.80;;;9.30;;
23754;SDS011;12057;52.042;6.830;2023-04-24T02:29:08;27.00;;;10.57;;
23754;SDS011;12057;52.042;6.830;2023-04-24T02:34:09;22.47;;;10.23;;
23754;SDS011;12057;52.042;6.830;2023-04-24T02:39:10;21.02;;;10.73;;
23754;SDS011;12057;52.042;6.830;2023-04-24T02:44:11;28.07;;;10.90;;
23754;SDS011;12057;52.042;6.830;2023-04-24T02:49:12;21.77;;;11.00;;
23754;SDS011;12057;52.042;6.830;2023-04-24T02:54:12;24.60;;;12.17;;
23754;SDS011;12057;52.042;6.830;2023-04-24T02:59:13;23.17;;;12.17;;
23754;SDS011;12057;52.042;6.830;2023-04-24T03:04:14;26.87;;;12.70;;
23754;SDS011;12057;52.042;6.830;2023-04-24T03:09:15;30.65;;;13.73;;
23754;SDS011;12057;52.042;6.830;2023-04-24T03:14:16;28.90;;;13.73;;
23754;SDS011;12057;52.042;6.830;2023-04-24T03:19:17;33.70;;;13.87;;
23754;SDS011;12057;52.042;6.830;2023-04-24T03:24:17;29.73;;;13.37;;
23754;SDS011;12057;52.042;6.830;2023-04-24T03:29:18;34.13;;;15.47;;
23754;SDS011;12057;52.042;6.830;2023-04-24T03:34:19;38.20;;;17.50;;
23754;SDS011;12057;52.042;6.830;2023-04-24T03:39:20;42.27;;;16.63;;
23754;SDS011;12057;52.042;6.830;2023-04-24T03:44:21;34.60;;;16.40;;
23754;SDS011;12057;52.042;6.830;2023-04-24T03:49:21;40.20;;;18.73;;
23754;SDS011;12057;52.042;6.830;2023-04-24T03:54:22;35.60;;;17.10;;
23754;SDS011;12057;52.042;6.830;2023-04-24T03:59:23;49.67;;;17.70;;
23754;SDS011;12057;52.042;6.830;2023-04-24T04:04:24;37.93;;;17.80;;
23754;SDS011;12057;52.042;6.830;2023-04-24T04:09:25;32.93;;;14.60;;
23754;SDS011;12057;52.042;6.830;2023-04-24T04:14:26;32.70;;;17.37;;
23754;SDS011;12057;52.042;6.830;2023-04-24T04:24:28;40.90;;;17.13;;
23754;SDS011;12057;52.042;6.830;2023-04-24T04:29:29;36.17;;;18.20;;
23754;SDS011;12057;52.042;6.830;2023-04-24T04:34:31;40.40;;;19.58;;
23754;SDS011;12057;52.042;6.830;2023-04-24T04:39:33;35.90;;;16.85;;
23754;SDS011;12057;52.042;6.830;2023-04-24T04:44:34;37.77;;;18.37;;
23754;SDS011;12057;52.042;6.830;2023-04-24T04:49:36;42.70;;;16.92;;
23754;SDS011;12057;52.042;6.830;2023-04-24T04:54:41;34.63;;;16.90;;
23754;SDS011;12057;52.042;6.830;2023-04-24T04:59:41;35.87;;;17.43;;
23754;SDS011;12057;52.042;6.830;2023-04-24T05:04:42;35.77;;;17.33;;
23754;SDS011;12057;52.042;6.830;2023-04-24T05:09:43;37.97;;;18.17;;
23754;SDS011;12057;52.042;6.830;2023-04-24T05:14:44;39.15;;;17.83;;
23754;SDS011;12057;52.042;6.830;2023-04-24T05:19:45;45.17;;;19.43;;
23754;SDS011;12057;52.042;6.830;2023-04-24T05:24:46;57.57;;;22.07;;
23754;SDS011;12057;52.042;6.830;2023-04-24T05:34:48;56.67;;;20.48;;
23754;SDS011;12057;52.042;6.830;2023-04-24T05:39:49;44.53;;;18.47;;
23754;SDS011;12057;52.042;6.830;2023-04-24T05:44:50;34.90;;;18.03;;
23754;SDS011;12057;52.042;6.830;2023-04-24T05:49:50;40.13;;;20.70;;
23754;SDS011;12057;52.042;6.830;2023-04-24T05:54:51;50.87;;;19.47;;
23754;SDS011;12057;52.042;6.830;2023-04-24T05:59:52;36.40;;;17.93;;
23754;SDS011;12057;52.042;6.830;2023-04-24T06:04:53;35.73;;;17.93;;
23754;SDS011;12057;52.042;6.830;2023-04-24T06:09:53;34.73;;;17.27;;
23754;SDS011;12057;52.042;6.830;2023-04-24T06:14:54;36.97;;;17.33;;
23754;SDS011;12057;52.042;6.830;2023-04-24T06:19:58;37.58;;;18.00;;
23754;SDS011;12057;52.042;6.830;2023-04-24T06:24:59;35.67;;;16.40;;
23754;SDS011;12057;52.042;6.830;2023-04-24T06:30:00;37.25;;;16.50;;
23754;SDS011;12057;52.042;6.830;2023-04-24T06:35:02;35.35;;;16.17;;
23754;SDS011;12057;52.042;6.830;2023-04-24T06:40:03;30.63;;;14.23;;
23754;SDS011;12057;52.042;6.830;2023-04-24T06:45:04;30.23;;;14.77;;
23754;SDS011;12057;52.042;6.830;2023-04-24T06:50:05;32.08;;;13.32;;
23754;SDS011;12057;52.042;6.830;2023-04-24T06:55:07;26.80;;;12.95;;
23754;SDS011;12057;52.042;6.830;2023-04-24T07:00:11;23.75;;;11.35;;
23754;SDS011;12057;52.042;6.830;2023-04-24T07:05:12;22.05;;;11.75;;
23754;SDS011;12057;52.042;6.830;2023-04-24T07:10:15;23.52;;;11.32;;
23754;SDS011;12057;52.042;6.830;2023-04-24T07:15:16;24.57;;;10.93;;
23754;SDS011;12057;52.042;6.830;2023-04-24T07:20:16;24.87;;;10.80;;
23754;SDS011;12057;52.042;6.830;2023-04-24T07:25:17;17.13;;;9.67;;
23754;SDS011;12057;52.042;6.830;2023-04-24T07:30:18;18.87;;;8.93;;
23754;SDS011;12057;52.042;6.830;2023-04-24T07:35:19;19.20;;;9.13;;
23754;SDS011;12057;52.042;6.830;2023-04-24T07:40:20;19.75;;;8.95;;
23754;SDS011;12057;52.042;6.830;2023-04-24T07:45:24;13.57;;;8.45;;
23754;SDS011;12057;52.042;6.830;2023-04-24T07:50:26;25.40;;;8.18;;
23754;SDS011;12057;52.042;6.830;2023-04-24T07:55:27;18.20;;;9.27;;
23754;SDS011;12057;52.042;6.830;2023-04-24T08:00:28;23.43;;;9.43;;
23754;SDS011;12057;52.042;6.830;2023-04-24T08:05:29;15.73;;;9.00;;
23754;SDS011;12057;52.042;6.830;2023-04-24T08:10:29;13.27;;;8.70;;
23754;SDS011;12057;52.042;6.830;2023-04-24T08:15:30;18.67;;;9.50;;
23754;SDS011;12057;52.042;6.830;2023-04-24T08:20:31;17.47;;;9.93;;
23754;SDS011;12057;52.042;6.830;2023-04-24T08:25:32;19.60;;;9.83;;
23754;SDS011;12057;52.042;6.830;2023-04-24T08:30:33;20.80;;;8.43;;
23754;SDS011;12057;52.042;6.830;2023-04-24T08:35:33;15.83;;;8.80;;
23754;SDS011;12057;52.042;6.830;2023-04-24T08:40:34;18.80;;;7.37;;
23754;SDS011;12057;52.042;6.830;2023-04-24T08:45:36;16.13;;;7.80;;
23754;SDS011;12057;52.042;6.830;2023-04-24T08:50:38;19.15;;;8.10;;
23754;SDS011;12057;52.042;6.830;2023-04-24T08:55:43;15.50;;;7.07;;
23754;SDS011;12057;52.042;6.830;2023-04-24T09:00:46;25.70;;;7.82;;
23754;SDS011;12057;52.042;6.830;2023-04-24T09:10:50;11.85;;;6.93;;
23754;SDS011;12057;52.042;6.830;2023-04-24T09:15:51;10.47;;;5.60;;
23754;SDS011;12057;52.042;6.830;2023-04-24T09:21:06;10.10;;;4.23;;
23754;SDS011;12057;52.042;6.830;2023-04-24T09:26:09;8.85;;;4.40;;
23754;SDS011;12057;52.042;6.830;2023-04-24T09:31:14;10.48;;;5.63;;
23754;SDS011;12057;52.042;6.830;2023-04-24T09:36:18;16.75;;;7.30;;
23754;SDS011;12057;52.042;6.830;2023-04-24T09:41:19;16.87;;;7.57;;
23754;SDS011;12057;52.042;6.830;2023-04-24T09:46:29;26.47;;;8.77;;
23754;SDS011;12057;52.042;6.830;2023-04-24T09:51:34;19.33;;;9.43;;
23754;SDS011;12057;52.042;6.830;2023-04-24T09:56:36;21.98;;;9.65;;
23754;SDS011;12057;52.042;6.830;2023-04-24T10:01:44;19.27;;;10.32;;
23754;SDS011;12057;52.042;6.830;2023-04-24T10:06:46;27.05;;;10.48;;
23754;SDS011;12057;52.042;6.830;2023-04-24T10:11:50;27.67;;;9.95;;
23754;SDS011;12057;52.042;6.830;2023-04-24T10:16:53;22.27;;;8.93;;
23754;SDS011;12057;52.042;6.830;2023-04-24T10:21:56;22.48;;;9.13;;
23754;SDS011;12057;52.042;6.830;2023-04-24T10:26:58;19.92;;;8.90;;
23754;SDS011;12057;52.042;6.830;2023-04-24T10:31:59;22.52;;;10.02;;
23754;SDS011;12057;52.042;6.830;2023-04-24T10:37:00;23.70;;;9.27;;
23754;SDS011;12057;52.042;6.830;2023-04-24T10:42:02;19.65;;;6.72;;
23754;SDS011;12057;52.042;6.830;2023-04-24T10:47:14;7.63;;;3.50;;
23754;SDS011;12057;52.042;6.830;2023-04-24T10:52:15;12.43;;;3.70;;
23754;SDS011;12057;52.042;6.830;2023-04-24T11:02:24;22.45;;;5.47;;
23754;SDS011;12057;52.042;6.830;2023-04-24T11:13:16;22.08;;;5.82;;
23754;SDS011;12057;52.042;6.830;2023-04-24T11:18:21;24.77;;;6.28;;
23754;SDS011;12057;52.042;6.830;2023-04-24T11:23:23;22.05;;;6.85;;
23754;SDS011;12057;52.042;6.830;2023-04-24T11:28:23;27.93;;;7.23;;
23754;SDS011;12057;52.042;6.830;2023-04-24T11:33:24;22.80;;;5.80;;
23754;SDS011;12057;52.042;6.830;2023-04-24T11:38:25;16.30;;;5.20;;
23754;SDS011;12057;52.042;6.830;2023-04-24T11:48:33;21.00;;;4.55;;
23754;SDS011;12057;52.042;6.830;2023-04-24T11:53:36;16.27;;;5.40;;
23754;SDS011;12057;52.042;6.830;2023-04-24T11:58:40;20.63;;;4.33;;
23754;SDS011;12057;52.042;6.830;2023-04-24T12:03:41;9.13;;;3.92;;
23754;SDS011;12057;52.042;6.830;2023-04-24T12:08:47;18.45;;;3.83;;
23754;SDS011;12057;52.042;6.830;2023-04-24T12:13:48;19.30;;;3.95;;
23754;SDS011;12057;52.042;6.830;2023-04-24T12:18:50;20.60;;;4.40;;
23754;SDS011;12057;52.042;6.830;2023-04-24T12:23:54;14.80;;;3.75;;
23754;SDS011;12057;52.042;6.830;2023-04-24T12:28:55;16.50;;;4.25;;
23754;SDS011;12057;52.042;6.830;2023-04-24T12:33:55;16.10;;;3.23;;
23754;SDS011;12057;52.042;6.830;2023-04-24T12:38:56;23.77;;;3.43;;
23754;SDS011;12057;52.042;6.830;2023-04-24T12:43:57;13.17;;;2.83;;
23754;SDS011;12057;52.042;6.830;2023-04-24T12:48:58;7.67;;;2.33;;
23754;SDS011;12057;52.042;6.830;2023-04-24T12:53:58;5.87;;;2.77;;
23754;SDS011;12057;52.042;6.830;2023-04-24T12:58:59;11.40;;;2.57;;
23754;SDS011;12057;52.042;6.830;2023-04-24T13:04:00;14.50;;;2.40;;
23754;SDS011;12057;52.042;6.830;2023-04-24T13:09:01;14.50;;;1.90;;
23754;SDS011;12057;52.042;6.830;2023-04-24T13:14:01;9.23;;;2.10;;
23754;SDS011;12057;52.042;6.830;2023-04-24T13:19:02;5.50;;;1.53;;
23754;SDS011;12057;52.042;6.830;2023-04-24T13:24:03;8.00;;;1.47;;
23754;SDS011;12057;52.042;6.830;2023-04-24T13:29:04;3.80;;;1.58;;
23754;SDS011;12057;52.042;6.830;2023-04-24T13:34:05;8.47;;;1.50;;
23754;SDS011;12057;52.042;6.830;2023-04-24T13:44:07;7.53;;;1.45;;
23754;SDS011;12057;52.042;6.830;2023-04-24T13:49:08;11.97;;;1.77;;
23754;SDS011;12057;52.042;6.830;2023-04-24T13:54:09;7.87;;;1.73;;
23754;SDS011;12057;52.042;6.830;2023-04-24T13:59:11;5.93;;;1.73;;
23754;SDS011;12057;52.042;6.830;2023-04-24T14:04:12;13.02;;;1.85;;
23754;SDS011;12057;52.042;6.830;2023-04-24T14:09:13;3.80;;;1.60;;
23754;SDS011;12057;52.042;6.830;2023-04-24T14:14:15;10.15;;;1.88;;
23754;SDS011;12057;52.042;6.830;2023-04-24T14:19:15;9.30;;;2.20;;
23754;SDS011;12057;52.042;6.830;2023-04-24T14:24:16;6.27;;;1.70;;
23754;SDS011;12057;52.042;6.830;2023-04-24T14:29:17;6.53;;;1.80;;
23754;SDS011;12057;52.042;6.830;2023-04-24T14:34:19;5.13;;;1.60;;
23754;SDS011;12057;52.042;6.830;2023-04-24T14:39:20;8.63;;;1.50;;
23754;SDS011;12057;52.042;6.830;2023-04-24T14:44:21;7.83;;;1.53;;
23754;SDS011;12057;52.042;6.830;2023-04-24T14:49:22;14.33;;;1.50;;
23754;SDS011;12057;52.042;6.830;2023-04-24T14:54:23;9.88;;;2.10;;
23754;SDS011;12057;52.042;6.830;2023-04-24T14:59:25;7.38;;;1.55;;
23754;SDS011;12057;52.042;6.830;2023-04-24T15:04:26;7.13;;;1.67;;
23754;SDS011;12057;52.042;6.830;2023-04-24T15:14:28;10.00;;;1.90;;
23754;SDS011;12057;52.042;6.830;2023-04-24T15:19:29;9.13;;;2.20;;
23754;SDS011;12057;52.042;6.830;2023-04-24T15:24:30;10.48;;;2.75;;
23754;SDS011;12057;52.042;6.830;2023-04-24T15:29:32;11.50;;;2.63;;
23754;SDS011;12057;52.042;6.830;2023-04-24T15:34:32;5.77;;;2.00;;
23754;SDS011;12057;52.042;6.830;2023-04-24T15:39:34;15.75;;;3.08;;
23754;SDS011;12057;52.042;6.830;2023-04-24T15:44:34;11.10;;;2.37;;
23754;SDS011;12057;52.042;6.830;2023-04-24T15:49:35;17.77;;;3.27;;
23754;SDS011;12057;52.042;6.830;2023-04-24T15:54:36;21.37;;;2.57;;
23754;SDS011;12057;52.042;6.830;2023-04-24T16:04:39;15.02;;;3.08;;
23754;SDS011;12057;52.042;6.830;2023-04-24T16:09:40;27.27;;;3.03;;
23754;SDS011;12057;52.042;6.830;2023-04-24T16:19:42;17.42;;;3.58;;
23754;SDS011;12057;52.042;6.830;2023-04-24T16:24:43;16.63;;;3.50;;
23754;SDS011;12057;52.042;6.830;2023-04-24T16:29:46;27.88;;;3.45;;
23754;SDS011;12057;52.042;6.830;2023-04-24T16:34:46;18.63;;;4.03;;
23754;SDS011;12057;52.042;6.830;2023-04-24T16:39:47;21.37;;;3.63;;
23754;SDS011;12057;52.042;6.830;2023-04-24T16:44:48;17.67;;;3.23;;
23754;SDS011;12057;52.042;6.830;2023-04-24T16:49:49;15.20;;;3.67;;
23754;SDS011;12057;52.042;6.830;2023-04-24T16:54:49;16.27;;;2.80;;
23754;SDS011;12057;52.042;6.830;2023-04-24T16:59:50;11.97;;;2.77;;
23754;SDS011;12057;52.042;6.830;2023-04-24T17:04:51;14.57;;;2.53;;
23754;SDS011;12057;52.042;6.830;2023-04-24T17:09:52;13.63;;;3.00;;
23754;SDS011;12057;52.042;6.830;2023-04-24T17:14:53;12.23;;;3.30;;
23754;SDS011;12057;52.042;6.830;2023-04-24T17:19:54;9.52;;;3.05;;
23754;SDS011;12057;52.042;6.830;2023-04-24T17:24:55;18.17;;;3.47;;
23754;SDS011;12057;52.042;6.830;2023-04-24T17:29:57;12.47;;;2.73;;
23754;SDS011;12057;52.042;6.830;2023-04-24T17:34:58;16.17;;;3.50;;
23754;SDS011;12057;52.042;6.830;2023-04-24T17:39:59;16.57;;;3.57;;
23754;SDS011;12057;52.042;6.830;2023-04-24T17:44:59;15.93;;;3.87;;
23754;SDS011;12057;52.042;6.830;2023-04-24T17:50:01;26.13;;;4.37;;
23754;SDS011;12057;52.042;6.830;2023-04-24T17:55:01;18.65;;;4.07;;
23754;SDS011;12057;52.042;6.830;2023-04-24T18:00:02;21.43;;;3.70;;
23754;SDS011;12057;52.042;6.830;2023-04-24T18:10:05;12.85;;;3.42;;
23754;SDS011;12057;52.042;6.830;2023-04-24T18:15:06;21.92;;;4.10;;
23754;SDS011;12057;52.042;6.830;2023-04-24T18:20:08;18.48;;;4.40;;
23754;SDS011;12057;52.042;6.830;2023-04-24T18:25:10;17.05;;;4.28;;
23754;SDS011;12057;52.042;6.830;2023-04-24T18:30:12;19.40;;;4.30;;
23754;SDS011;12057;52.042;6.830;2023-04-24T18:35:12;18.33;;;4.87;;
23754;SDS011;12057;52.042;6.830;2023-04-24T18:40:13;28.27;;;5.27;;
23754;SDS011;12057;52.042;6.830;2023-04-24T18:45:15;17.20;;;4.25;;
23754;SDS011;12057;52.042;6.830;2023-04-24T18:50:15;21.87;;;4.27;;
23754;SDS011;12057;52.042;6.830;2023-04-24T18:55:18;19.73;;;4.18;;
23754;SDS011;12057;52.042;6.830;2023-04-24T19:00:19;17.52;;;4.65;;
23754;SDS011;12057;52.042;6.830;2023-04-24T19:05:20;16.70;;;4.78;;
23754;SDS011;12057;52.042;6.830;2023-04-24T19:10:21;24.43;;;5.23;;
23754;SDS011;12057;52.042;6.830;2023-04-24T19:15:22;32.87;;;6.20;;
23754;SDS011;12057;52.042;6.830;2023-04-24T19:20:26;22.48;;;4.47;;
23754;SDS011;12057;52.042;6.830;2023-04-24T19:25:28;23.75;;;4.75;;
23754;SDS011;12057;52.042;6.830;2023-04-24T19:30:29;25.33;;;6.10;;
23754;SDS011;12057;52.042;6.830;2023-04-24T19:35:30;37.57;;;5.40;;
23754;SDS011;12057;52.042;6.830;2023-04-24T19:40:30;17.03;;;5.10;;
23754;SDS011;12057;52.042;6.830;2023-04-24T19:45:31;33.53;;;5.50;;
23754;SDS011;12057;52.042;6.830;2023-04-24T19:50:32;24.50;;;5.37;;
23754;SDS011;12057;52.042;6.830;2023-04-24T19:55:33;26.48;;;6.47;;
23754;SDS011;12057;52.042;6.830;2023-04-24T20:00:34;22.43;;;5.83;;
23754;SDS011;12057;52.042;6.830;2023-04-24T20:05:35;21.03;;;5.10;;
23754;SDS011;12057;52.042;6.830;2023-04-24T20:10:36;23.48;;;6.03;;
23754;SDS011;12057;52.042;6.830;2023-04-24T20:15:37;33.10;;;5.87;;
23754;SDS011;12057;52.042;6.830;2023-04-24T20:20:38;27.20;;;5.57;;
23754;SDS011;12057;52.042;6.830;2023-04-24T20:25:40;22.23;;;5.97;;
23754;SDS011;12057;52.042;6.830;2023-04-24T20:30:41;35.77;;;5.53;;
23754;SDS011;12057;52.042;6.830;2023-04-24T20:35:42;19.53;;;6.10;;
23754;SDS011;12057;52.042;6.830;2023-04-24T20:40:43;32.07;;;5.77;;
23754;SDS011;12057;52.042;6.830;2023-04-24T20:45:46;24.50;;;5.90;;
23754;SDS011;12057;52.042;6.830;2023-04-24T20:50:47;29.93;;;5.60;;
23754;SDS011;12057;52.042;6.830;2023-04-24T20:55:49;31.23;;;6.07;;
23754;SDS011;12057;52.042;6.830;2023-04-24T21:00:50;23.92;;;5.95;;
23754;SDS011;12057;52.042;6.830;2023-04-24T21:05:51;22.45;;;5.93;;
23754;SDS011;12057;52.042;6.830;2023-04-24T21:10:51;33.03;;;7.27;;
23754;SDS011;12057;52.042;6.830;2023-04-24T21:15:52;37.50;;;5.73;;
23754;SDS011;12057;52.042;6.830;2023-04-24T21:20:53;32.43;;;6.93;;
23754;SDS011;12057;52.042;6.830;2023-04-24T21:25:55;25.58;;;6.43;;
23754;SDS011;12057;52.042;6.830;2023-04-24T21:30:56;34.40;;;6.63;;
23754;SDS011;12057;52.042;6.830;2023-04-24T21:35:57;31.17;;;6.43;;
23754;SDS011;12057;52.042;6.830;2023-04-24T21:40:58;19.13;;;5.80;;
23754;SDS011;12057;52.042;6.830;2023-04-24T21:45:58;24.57;;;5.73;;
23754;SDS011;12057;52.042;6.830;2023-04-24T21:50:59;32.67;;;5.90;;
23754;SDS011;12057;52.042;6.830;2023-04-24T21:56:00;31.10;;;6.40;;
23754;SDS011;12057;52.042;6.830;2023-04-24T22:01:01;22.27;;;6.90;;
23754;SDS011;12057;52.042;6.830;2023-04-24T22:06:02;28.13;;;6.10;;
23754;SDS011;12057;52.042;6.830;2023-04-24T22:11:02;23.13;;;5.43;;
23754;SDS011;12057;52.042;6.830;2023-04-24T22:16:03;38.80;;;6.50;;
23754;SDS011;12057;52.042;6.830;2023-04-24T22:21:05;34.20;;;6.53;;
23754;SDS011;12057;52.042;6.830;2023-04-24T22:26:06;37.28;;;4.95;;
23754;SDS011;12057;52.042;6.830;2023-04-24T22:31:06;28.87;;;5.23;;
23754;SDS011;12057;52.042;6.830;2023-04-24T22:36:08;24.70;;;5.97;;
23754;SDS011;12057;52.042;6.830;2023-04-24T22:41:09;28.75;;;5.82;;
23754;SDS011;12057;52.042;6.830;2023-04-24T22:46:10;25.23;;;5.55;;
23754;SDS011;12057;52.042;6.830;2023-04-24T22:51:11;24.43;;;5.27;;
23754;SDS011;12057;52.042;6.830;2023-04-24T22:56:12;34.07;;;4.90;;
23754;SDS011;12057;52.042;6.830;2023-04-24T23:01:12;18.03;;;4.77;;
23754;SDS011;12057;52.042;6.830;2023-04-24T23:06:13;21.97;;;5.60;;
23754;SDS011;12057;52.042;6.830;2023-04-24T23:11:14;16.67;;;4.67;;
23754;SDS011;12057;52.042;6.830;2023-04-24T23:16:15;16.60;;;4.83;;
23754;SDS011;12057;52.042;6.830;2023-04-24T23:21:15;12.73;;;5.13;;
23754;SDS011;12057;52.042;6.830;2023-04-24T23:26:16;15.53;;;3.90;;
23754;SDS011;12057;52.042;6.830;2023-04-24T23:31:17;16.23;;;4.22;;
23754;SDS011;12057;52.042;6.830;2023-04-24T23:36:18;10.57;;;3.20;;
23754;SDS011;12057;52.042;6.830;2023-04-24T23:41:19;12.77;;;3.57;;
23754;SDS011;12057;52.042;6.830;2023-04-24T23:46:20;11.53;;;3.27;;
23754;SDS011;12057;52.042;6.830;2023-04-24T23:51:21;10.85;;;3.20;;
23754;SDS011;12057;52.042;6.830;2023-04-24T23:56:22;13.67;;;4.13;;
